Des Moines, Iowa
Current Conditions -  °F | °C
As of 2:54 AM on Monday 24 Nov 2014 (Local Time) from KDSM Reporting Station
Overcast Overcast  
Wind Chill: 20°   Ceiling: 1900
Heat Index: 33°   Visibility: 10mi
Dew Point: 26°   Wind: 28mph
Humidity: 75%   Direction: 320°NW
Pressure: 29.4"   Gusts: 35mph
Location:  41.59°N, 93.61°W
Report Text: KDSM 240854Z 32024G30KT 10SM OVC019 01/M03 A2940 RMK AO2 PK WND 32033/0810 SLP959 T00061033 53006
Loading
Personal Weather Stations






























Interactive Weather Map New forecast layout! Learn more

10-Day Weather Forecast

Advertisements
Track Severe Weather on mobile